sensor_id;sensor_type;location;lat;lon;timestamp;P1;durP1;ratioP1;P2;durP2;ratioP2
36797;SDS011;22748;8.426;99.512;2024-01-30T00:00:40;23.35;;;14.07;;
36797;SDS011;22748;8.426;99.512;2024-01-30T00:03:15;21.00;;;13.35;;
36797;SDS011;22748;8.426;99.512;2024-01-30T00:05:55;23.00;;;13.88;;
36797;SDS011;22748;8.426;99.512;2024-01-30T00:08:31;23.30;;;14.82;;
36797;SDS011;22748;8.426;99.512;2024-01-30T00:11:01;25.92;;;15.32;;
36797;SDS011;22748;8.426;99.512;2024-01-30T00:13:31;44.35;;;23.90;;
36797;SDS011;22748;8.426;99.512;2024-01-30T00:16:01;35.78;;;23.77;;
36797;SDS011;22748;8.426;99.512;2024-01-30T00:18:31;29.73;;;17.33;;
36797;SDS011;22748;8.426;99.512;2024-01-30T00:21:00;29.90;;;17.45;;
36797;SDS011;22748;8.426;99.512;2024-01-30T00:23:36;58.65;;;33.20;;
36797;SDS011;22748;8.426;99.512;2024-01-30T00:26:06;30.95;;;17.85;;
36797;SDS011;22748;8.426;99.512;2024-01-30T00:28:37;33.35;;;17.70;;
36797;SDS011;22748;8.426;99.512;2024-01-30T00:31:07;31.05;;;17.05;;
36797;SDS011;22748;8.426;99.512;2024-01-30T00:33:38;32.08;;;19.10;;
36797;SDS011;22748;8.426;99.512;2024-01-30T00:36:08;31.15;;;17.58;;
36797;SDS011;22748;8.426;99.512;2024-01-30T00:38:44;24.85;;;16.13;;
36797;SDS011;22748;8.426;99.512;2024-01-30T00:41:14;22.20;;;14.68;;
36797;SDS011;22748;8.426;99.512;2024-01-30T00:43:45;26.15;;;15.52;;
36797;SDS011;22748;8.426;99.512;2024-01-30T00:46:15;26.30;;;16.27;;
36797;SDS011;22748;8.426;99.512;2024-01-30T00:48:44;30.45;;;18.77;;
36797;SDS011;22748;8.426;99.512;2024-01-30T00:51:14;28.42;;;17.13;;
36797;SDS011;22748;8.426;99.512;2024-01-30T00:53:49;30.92;;;20.17;;
36797;SDS011;22748;8.426;99.512;2024-01-30T00:56:19;26.08;;;18.92;;
36797;SDS011;22748;8.426;99.512;2024-01-30T00:58:50;36.97;;;19.83;;
36797;SDS011;22748;8.426;99.512;2024-01-30T01:01:19;37.33;;;19.63;;
36797;SDS011;22748;8.426;99.512;2024-01-30T01:03:49;32.38;;;18.50;;
36797;SDS011;22748;8.426;99.512;2024-01-30T01:06:19;28.15;;;18.15;;
36797;SDS011;22748;8.426;99.512;2024-01-30T01:08:54;31.17;;;18.77;;
36797;SDS011;22748;8.426;99.512;2024-01-30T01:11:24;34.28;;;21.48;;
36797;SDS011;22748;8.426;99.512;2024-01-30T01:13:53;39.20;;;22.90;;
36797;SDS011;22748;8.426;99.512;2024-01-30T01:16:23;34.63;;;21.08;;
36797;SDS011;22748;8.426;99.512;2024-01-30T01:18:52;40.50;;;21.88;;
36797;SDS011;22748;8.426;99.512;2024-01-30T01:21:22;34.03;;;19.77;;
36797;SDS011;22748;8.426;99.512;2024-01-30T01:23:57;33.83;;;20.67;;
36797;SDS011;22748;8.426;99.512;2024-01-30T01:26:27;34.38;;;19.80;;
36797;SDS011;22748;8.426;99.512;2024-01-30T01:28:56;36.65;;;20.48;;
36797;SDS011;22748;8.426;99.512;2024-01-30T01:31:26;30.92;;;19.27;;
36797;SDS011;22748;8.426;99.512;2024-01-30T01:33:56;32.97;;;19.42;;
36797;SDS011;22748;8.426;99.512;2024-01-30T01:36:26;33.00;;;18.90;;
36797;SDS011;22748;8.426;99.512;2024-01-30T01:38:58;39.17;;;20.25;;
36797;SDS011;22748;8.426;99.512;2024-01-30T01:41:30;34.75;;;19.40;;
36797;SDS011;22748;8.426;99.512;2024-01-30T01:44:00;32.85;;;19.50;;
36797;SDS011;22748;8.426;99.512;2024-01-30T01:46:32;32.10;;;19.17;;
36797;SDS011;22748;8.426;99.512;2024-01-30T01:49:03;35.08;;;18.83;;
36797;SDS011;22748;8.426;99.512;2024-01-30T01:51:34;37.13;;;21.38;;
36797;SDS011;22748;8.426;99.512;2024-01-30T01:54:12;26.10;;;16.30;;
36797;SDS011;22748;8.426;99.512;2024-01-30T01:56:44;28.25;;;13.13;;
36797;SDS011;22748;8.426;99.512;2024-01-30T01:59:13;20.52;;;10.82;;
36797;SDS011;22748;8.426;99.512;2024-01-30T02:01:44;20.30;;;9.80;;
36797;SDS011;22748;8.426;99.512;2024-01-30T02:06:43;23.30;;;10.85;;
36797;SDS011;22748;8.426;99.512;2024-01-30T02:09:20;20.70;;;9.43;;
36797;SDS011;22748;8.426;99.512;2024-01-30T02:11:50;19.50;;;9.70;;
36797;SDS011;22748;8.426;99.512;2024-01-30T02:14:20;21.83;;;9.43;;
36797;SDS011;22748;8.426;99.512;2024-01-30T02:16:50;23.63;;;10.30;;
36797;SDS011;22748;8.426;99.512;2024-01-30T02:19:20;21.45;;;8.80;;
36797;SDS011;22748;8.426;99.512;2024-01-30T02:21:52;17.88;;;7.78;;
36797;SDS011;22748;8.426;99.512;2024-01-30T02:24:22;18.27;;;7.78;;
36797;SDS011;22748;8.426;99.512;2024-01-30T02:26:52;70.15;;;29.60;;
36797;SDS011;22748;8.426;99.512;2024-01-30T02:29:21;28.25;;;11.85;;
36797;SDS011;22748;8.426;99.512;2024-01-30T02:31:51;26.35;;;10.60;;
36797;SDS011;22748;8.426;99.512;2024-01-30T02:34:21;28.88;;;11.50;;
36797;SDS011;22748;8.426;99.512;2024-01-30T02:36:52;20.58;;;8.48;;
36797;SDS011;22748;8.426;99.512;2024-01-30T02:39:25;15.68;;;7.15;;
36797;SDS011;22748;8.426;99.512;2024-01-30T02:41:55;16.98;;;7.28;;
36797;SDS011;22748;8.426;99.512;2024-01-30T02:44:25;18.58;;;6.60;;
36797;SDS011;22748;8.426;99.512;2024-01-30T02:46:55;14.63;;;5.78;;
36797;SDS011;22748;8.426;99.512;2024-01-30T02:49:25;16.88;;;5.95;;
36797;SDS011;22748;8.426;99.512;2024-01-30T02:51:56;15.20;;;6.28;;
36797;SDS011;22748;8.426;99.512;2024-01-30T02:54:25;20.15;;;7.68;;
36797;SDS011;22748;8.426;99.512;2024-01-30T02:56:56;23.83;;;10.05;;
36797;SDS011;22748;8.426;99.512;2024-01-30T02:59:26;22.70;;;9.70;;
36797;SDS011;22748;8.426;99.512;2024-01-30T03:01:55;13.98;;;6.75;;
36797;SDS011;22748;8.426;99.512;2024-01-30T03:04:26;19.20;;;7.70;;
36797;SDS011;22748;8.426;99.512;2024-01-30T03:07:02;17.13;;;6.50;;
36797;SDS011;22748;8.426;99.512;2024-01-30T03:09:32;14.65;;;6.15;;
36797;SDS011;22748;8.426;99.512;2024-01-30T03:12:02;15.98;;;6.63;;
36797;SDS011;22748;8.426;99.512;2024-01-30T03:14:32;15.85;;;6.30;;
36797;SDS011;22748;8.426;99.512;2024-01-30T03:17:03;21.02;;;6.47;;
36797;SDS011;22748;8.426;99.512;2024-01-30T03:19:32;10.53;;;6.17;;
36797;SDS011;22748;8.426;99.512;2024-01-30T03:22:08;15.40;;;7.10;;
36797;SDS011;22748;8.426;99.512;2024-01-30T03:24:38;16.25;;;6.90;;
36797;SDS011;22748;8.426;99.512;2024-01-30T03:27:07;15.57;;;6.93;;
36797;SDS011;22748;8.426;99.512;2024-01-30T03:29:37;13.55;;;6.97;;
36797;SDS011;22748;8.426;99.512;2024-01-30T03:32:06;13.05;;;6.15;;
36797;SDS011;22748;8.426;99.512;2024-01-30T03:34:36;15.10;;;6.55;;
36797;SDS011;22748;8.426;99.512;2024-01-30T03:37:12;12.80;;;6.70;;
36797;SDS011;22748;8.426;99.512;2024-01-30T03:39:42;15.00;;;5.80;;
36797;SDS011;22748;8.426;99.512;2024-01-30T03:42:11;20.48;;;10.18;;
36797;SDS011;22748;8.426;99.512;2024-01-30T03:44:41;17.92;;;8.40;;
36797;SDS011;22748;8.426;99.512;2024-01-30T03:47:12;15.40;;;7.07;;
36797;SDS011;22748;8.426;99.512;2024-01-30T03:49:42;16.38;;;6.88;;
36797;SDS011;22748;8.426;99.512;2024-01-30T03:52:17;11.57;;;5.95;;
36797;SDS011;22748;8.426;99.512;2024-01-30T03:54:47;15.15;;;7.50;;
36797;SDS011;22748;8.426;99.512;2024-01-30T03:57:17;13.82;;;6.30;;
36797;SDS011;22748;8.426;99.512;2024-01-30T03:59:46;12.50;;;5.32;;
36797;SDS011;22748;8.426;99.512;2024-01-30T04:02:16;11.48;;;5.05;;
36797;SDS011;22748;8.426;99.512;2024-01-30T04:04:46;9.52;;;5.00;;
36797;SDS011;22748;8.426;99.512;2024-01-30T04:07:22;8.25;;;4.97;;
36797;SDS011;22748;8.426;99.512;2024-01-30T04:09:52;8.93;;;4.35;;
36797;SDS011;22748;8.426;99.512;2024-01-30T04:12:22;10.32;;;4.75;;
36797;SDS011;22748;8.426;99.512;2024-01-30T04:14:52;9.63;;;4.45;;
36797;SDS011;22748;8.426;99.512;2024-01-30T04:17:21;11.48;;;4.88;;
36797;SDS011;22748;8.426;99.512;2024-01-30T04:19:51;7.50;;;5.10;;
36797;SDS011;22748;8.426;99.512;2024-01-30T04:22:28;10.10;;;4.80;;
36797;SDS011;22748;8.426;99.512;2024-01-30T04:24:58;8.90;;;4.88;;
36797;SDS011;22748;8.426;99.512;2024-01-30T04:27:28;8.27;;;4.80;;
36797;SDS011;22748;8.426;99.512;2024-01-30T04:29:58;9.13;;;4.72;;
36797;SDS011;22748;8.426;99.512;2024-01-30T04:32:27;8.82;;;4.65;;
36797;SDS011;22748;8.426;99.512;2024-01-30T04:34:57;9.95;;;4.30;;
36797;SDS011;22748;8.426;99.512;2024-01-30T04:37:33;16.92;;;4.55;;
36797;SDS011;22748;8.426;99.512;2024-01-30T04:40:03;8.73;;;4.90;;
36797;SDS011;22748;8.426;99.512;2024-01-30T04:42:35;9.40;;;5.03;;
36797;SDS011;22748;8.426;99.512;2024-01-30T04:45:06;9.45;;;4.72;;
36797;SDS011;22748;8.426;99.512;2024-01-30T04:47:36;10.15;;;5.20;;
36797;SDS011;22748;8.426;99.512;2024-01-30T04:50:06;8.95;;;4.65;;
36797;SDS011;22748;8.426;99.512;2024-01-30T04:55:11;7.95;;;4.95;;
36797;SDS011;22748;8.426;99.512;2024-01-30T04:57:41;6.82;;;4.40;;
36797;SDS011;22748;8.426;99.512;2024-01-30T05:00:11;7.07;;;4.72;;
36797;SDS011;22748;8.426;99.512;2024-01-30T05:02:41;12.55;;;4.72;;
36797;SDS011;22748;8.426;99.512;2024-01-30T05:05:11;14.27;;;4.85;;
36797;SDS011;22748;8.426;99.512;2024-01-30T05:07:46;14.23;;;5.35;;
36797;SDS011;22748;8.426;99.512;2024-01-30T05:10:15;13.32;;;5.00;;
36797;SDS011;22748;8.426;99.512;2024-01-30T05:12:45;10.45;;;5.55;;
36797;SDS011;22748;8.426;99.512;2024-01-30T05:15:15;8.70;;;4.65;;
36797;SDS011;22748;8.426;99.512;2024-01-30T05:17:44;9.82;;;4.97;;
36797;SDS011;22748;8.426;99.512;2024-01-30T05:20:14;16.38;;;9.25;;
36797;SDS011;22748;8.426;99.512;2024-01-30T05:22:47;9.80;;;5.53;;
36797;SDS011;22748;8.426;99.512;2024-01-30T05:25:18;9.60;;;5.43;;
36797;SDS011;22748;8.426;99.512;2024-01-30T05:27:49;95.20;;;35.15;;
36797;SDS011;22748;8.426;99.512;2024-01-30T05:30:18;26.05;;;11.38;;
36797;SDS011;22748;8.426;99.512;2024-01-30T05:32:48;35.55;;;16.05;;
36797;SDS011;22748;8.426;99.512;2024-01-30T05:35:18;14.20;;;6.50;;
36797;SDS011;22748;8.426;99.512;2024-01-30T05:37:50;19.02;;;9.10;;
36797;SDS011;22748;8.426;99.512;2024-01-30T05:40:20;19.75;;;8.65;;
36797;SDS011;22748;8.426;99.512;2024-01-30T05:42:50;13.60;;;6.70;;
36797;SDS011;22748;8.426;99.512;2024-01-30T05:45:20;18.27;;;6.63;;
36797;SDS011;22748;8.426;99.512;2024-01-30T05:47:50;10.65;;;6.22;;
36797;SDS011;22748;8.426;99.512;2024-01-30T05:50:20;13.87;;;7.20;;
36797;SDS011;22748;8.426;99.512;2024-01-30T05:52:57;13.90;;;6.75;;
36797;SDS011;22748;8.426;99.512;2024-01-30T05:55:27;13.52;;;6.78;;
36797;SDS011;22748;8.426;99.512;2024-01-30T05:57:57;13.98;;;6.65;;
36797;SDS011;22748;8.426;99.512;2024-01-30T06:00:27;12.60;;;7.00;;
36797;SDS011;22748;8.426;99.512;2024-01-30T06:02:56;16.17;;;6.40;;
36797;SDS011;22748;8.426;99.512;2024-01-30T06:05:26;13.55;;;6.85;;
36797;SDS011;22748;8.426;99.512;2024-01-30T06:08:01;12.48;;;6.65;;
36797;SDS011;22748;8.426;99.512;2024-01-30T06:10:31;13.82;;;6.93;;
36797;SDS011;22748;8.426;99.512;2024-01-30T06:13:01;14.02;;;7.15;;
36797;SDS011;22748;8.426;99.512;2024-01-30T06:15:30;10.60;;;6.72;;
36797;SDS011;22748;8.426;99.512;2024-01-30T06:18:00;13.57;;;6.63;;
36797;SDS011;22748;8.426;99.512;2024-01-30T06:20:30;19.10;;;7.20;;
36797;SDS011;22748;8.426;99.512;2024-01-30T06:23:02;13.40;;;7.32;;
36797;SDS011;22748;8.426;99.512;2024-01-30T06:25:34;12.98;;;6.82;;
36797;SDS011;22748;8.426;99.512;2024-01-30T06:28:04;14.77;;;7.07;;
36797;SDS011;22748;8.426;99.512;2024-01-30T06:30:39;14.47;;;7.13;;
36797;SDS011;22748;8.426;99.512;2024-01-30T06:33:10;14.40;;;7.13;;
36797;SDS011;22748;8.426;99.512;2024-01-30T06:35:41;10.43;;;6.47;;
36797;SDS011;22748;8.426;99.512;2024-01-30T06:38:13;12.73;;;6.75;;
36797;SDS011;22748;8.426;99.512;2024-01-30T06:40:43;12.02;;;6.88;;
36797;SDS011;22748;8.426;99.512;2024-01-30T06:43:12;10.63;;;7.18;;
36797;SDS011;22748;8.426;99.512;2024-01-30T06:45:42;13.00;;;7.25;;
36797;SDS011;22748;8.426;99.512;2024-01-30T06:48:12;13.27;;;6.93;;
36797;SDS011;22748;8.426;99.512;2024-01-30T06:50:41;11.45;;;6.68;;
36797;SDS011;22748;8.426;99.512;2024-01-30T06:53:11;10.23;;;7.28;;
36797;SDS011;22748;8.426;99.512;2024-01-30T06:55:47;15.75;;;7.10;;
36797;SDS011;22748;8.426;99.512;2024-01-30T06:58:16;9.38;;;6.28;;
36797;SDS011;22748;8.426;99.512;2024-01-30T07:00:45;11.50;;;6.32;;
36797;SDS011;22748;8.426;99.512;2024-01-30T07:03:15;13.95;;;7.07;;
36797;SDS011;22748;8.426;99.512;2024-01-30T07:05:45;13.85;;;5.85;;
36797;SDS011;22748;8.426;99.512;2024-01-30T07:08:20;12.32;;;6.43;;
36797;SDS011;22748;8.426;99.512;2024-01-30T07:10:50;11.75;;;6.35;;
36797;SDS011;22748;8.426;99.512;2024-01-30T07:15:49;12.30;;;6.28;;
36797;SDS011;22748;8.426;99.512;2024-01-30T07:18:19;11.68;;;6.38;;
36797;SDS011;22748;8.426;99.512;2024-01-30T07:20:48;11.57;;;6.70;;
36797;SDS011;22748;8.426;99.512;2024-01-30T07:23:23;11.25;;;6.28;;
36797;SDS011;22748;8.426;99.512;2024-01-30T07:25:52;14.70;;;6.50;;
36797;SDS011;22748;8.426;99.512;2024-01-30T07:28:22;11.77;;;6.20;;
36797;SDS011;22748;8.426;99.512;2024-01-30T07:30:52;13.13;;;5.65;;
36797;SDS011;22748;8.426;99.512;2024-01-30T07:33:21;14.68;;;6.60;;
36797;SDS011;22748;8.426;99.512;2024-01-30T07:35:51;15.07;;;6.05;;
36797;SDS011;22748;8.426;99.512;2024-01-30T07:38:27;13.18;;;6.60;;
36797;SDS011;22748;8.426;99.512;2024-01-30T07:40:59;14.30;;;6.40;;
36797;SDS011;22748;8.426;99.512;2024-01-30T07:43:29;17.00;;;6.40;;
36797;SDS011;22748;8.426;99.512;2024-01-30T07:45:59;14.55;;;6.55;;
36797;SDS011;22748;8.426;99.512;2024-01-30T07:48:29;12.93;;;6.05;;
36797;SDS011;22748;8.426;99.512;2024-01-30T07:51:01;12.25;;;6.47;;
36797;SDS011;22748;8.426;99.512;2024-01-30T07:53:36;10.63;;;5.88;;
36797;SDS011;22748;8.426;99.512;2024-01-30T07:56:06;21.38;;;11.30;;
36797;SDS011;22748;8.426;99.512;2024-01-30T07:58:35;11.55;;;7.22;;
36797;SDS011;22748;8.426;99.512;2024-01-30T08:01:05;18.30;;;6.07;;
36797;SDS011;22748;8.426;99.512;2024-01-30T08:03:35;11.15;;;6.07;;
36797;SDS011;22748;8.426;99.512;2024-01-30T08:06:06;12.18;;;6.95;;
36797;SDS011;22748;8.426;99.512;2024-01-30T08:08:41;15.35;;;6.10;;
36797;SDS011;22748;8.426;99.512;2024-01-30T08:11:11;12.02;;;6.18;;
36797;SDS011;22748;8.426;99.512;2024-01-30T08:13:41;13.15;;;6.10;;
36797;SDS011;22748;8.426;99.512;2024-01-30T08:16:10;11.85;;;6.13;;
36797;SDS011;22748;8.426;99.512;2024-01-30T08:18:39;11.52;;;6.60;;
36797;SDS011;22748;8.426;99.512;2024-01-30T08:21:09;14.38;;;6.32;;
36797;SDS011;22748;8.426;99.512;2024-01-30T08:23:44;15.23;;;6.57;;
36797;SDS011;22748;8.426;99.512;2024-01-30T08:26:14;11.65;;;5.82;;
36797;SDS011;22748;8.426;99.512;2024-01-30T08:28:43;15.63;;;6.93;;
36797;SDS011;22748;8.426;99.512;2024-01-30T08:31:13;13.30;;;6.75;;
36797;SDS011;22748;8.426;99.512;2024-01-30T08:33:42;14.40;;;6.63;;
36797;SDS011;22748;8.426;99.512;2024-01-30T08:36:12;11.85;;;7.03;;
36797;SDS011;22748;8.426;99.512;2024-01-30T08:38:48;13.97;;;6.10;;
36797;SDS011;22748;8.426;99.512;2024-01-30T08:41:18;14.52;;;7.55;;
36797;SDS011;22748;8.426;99.512;2024-01-30T08:43:47;13.75;;;7.22;;
36797;SDS011;22748;8.426;99.512;2024-01-30T08:46:17;13.53;;;7.80;;
36797;SDS011;22748;8.426;99.512;2024-01-30T08:48:47;11.18;;;8.20;;
36797;SDS011;22748;8.426;99.512;2024-01-30T08:51:16;10.20;;;7.00;;
36797;SDS011;22748;8.426;99.512;2024-01-30T08:53:50;15.32;;;7.53;;
36797;SDS011;22748;8.426;99.512;2024-01-30T08:56:20;13.55;;;6.97;;
36797;SDS011;22748;8.426;99.512;2024-01-30T08:58:50;12.15;;;7.35;;
36797;SDS011;22748;8.426;99.512;2024-01-30T09:01:28;16.80;;;7.60;;
36797;SDS011;22748;8.426;99.512;2024-01-30T09:03:59;13.90;;;6.82;;
36797;SDS011;22748;8.426;99.512;2024-01-30T09:06:28;10.05;;;6.97;;
36797;SDS011;22748;8.426;99.512;2024-01-30T09:09:03;14.93;;;7.55;;
36797;SDS011;22748;8.426;99.512;2024-01-30T09:11:34;11.02;;;6.57;;
36797;SDS011;22748;8.426;99.512;2024-01-30T09:14:04;12.27;;;6.68;;
36797;SDS011;22748;8.426;99.512;2024-01-30T09:16:34;12.55;;;7.55;;
36797;SDS011;22748;8.426;99.512;2024-01-30T09:19:04;14.38;;;7.20;;
36797;SDS011;22748;8.426;99.512;2024-01-30T09:21:33;12.05;;;7.18;;
36797;SDS011;22748;8.426;99.512;2024-01-30T09:24:08;18.48;;;7.88;;
36797;SDS011;22748;8.426;99.512;2024-01-30T09:26:38;13.77;;;7.72;;
36797;SDS011;22748;8.426;99.512;2024-01-30T09:29:07;13.13;;;7.78;;
36797;SDS011;22748;8.426;99.512;2024-01-30T09:31:37;15.20;;;7.93;;
36797;SDS011;22748;8.426;99.512;2024-01-30T09:34:06;14.32;;;8.10;;
36797;SDS011;22748;8.426;99.512;2024-01-30T09:36:36;12.40;;;7.55;;
36797;SDS011;22748;8.426;99.512;2024-01-30T09:39:11;11.10;;;7.22;;
36797;SDS011;22748;8.426;99.512;2024-01-30T09:41:45;13.95;;;7.13;;
36797;SDS011;22748;8.426;99.512;2024-01-30T09:44:17;13.43;;;7.80;;
36797;SDS011;22748;8.426;99.512;2024-01-30T09:46:48;14.77;;;7.38;;
36797;SDS011;22748;8.426;99.512;2024-01-30T09:49:19;13.43;;;6.80;;
36797;SDS011;22748;8.426;99.512;2024-01-30T09:51:50;12.70;;;7.18;;
36797;SDS011;22748;8.426;99.512;2024-01-30T09:56:56;14.07;;;7.72;;
36797;SDS011;22748;8.426;99.512;2024-01-30T09:59:26;13.75;;;7.20;;
36797;SDS011;22748;8.426;99.512;2024-01-30T10:01:55;11.98;;;7.88;;
36797;SDS011;22748;8.426;99.512;2024-01-30T10:04:25;12.57;;;7.68;;
36797;SDS011;22748;8.426;99.512;2024-01-30T10:06:55;14.57;;;7.82;;
36797;SDS011;22748;8.426;99.512;2024-01-30T10:09:31;14.82;;;8.65;;
36797;SDS011;22748;8.426;99.512;2024-01-30T10:12:02;17.85;;;8.77;;
36797;SDS011;22748;8.426;99.512;2024-01-30T10:14:33;16.33;;;8.75;;
36797;SDS011;22748;8.426;99.512;2024-01-30T10:17:07;16.63;;;8.20;;
36797;SDS011;22748;8.426;99.512;2024-01-30T10:19:37;12.65;;;8.43;;
36797;SDS011;22748;8.426;99.512;2024-01-30T10:22:09;13.73;;;8.05;;
36797;SDS011;22748;8.426;99.512;2024-01-30T10:24:44;12.07;;;8.05;;
36797;SDS011;22748;8.426;99.512;2024-01-30T10:27:14;10.05;;;8.32;;
36797;SDS011;22748;8.426;99.512;2024-01-30T10:29:48;14.13;;;7.60;;
36797;SDS011;22748;8.426;99.512;2024-01-30T10:32:16;12.18;;;8.15;;
36797;SDS011;22748;8.426;99.512;2024-01-30T10:34:46;12.77;;;7.78;;
36797;SDS011;22748;8.426;99.512;2024-01-30T10:37:16;12.02;;;7.28;;
36797;SDS011;22748;8.426;99.512;2024-01-30T10:39:56;10.43;;;7.68;;
36797;SDS011;22748;8.426;99.512;2024-01-30T10:42:31;16.35;;;8.25;;
36797;SDS011;22748;8.426;99.512;2024-01-30T10:45:06;12.85;;;8.07;;
36797;SDS011;22748;8.426;99.512;2024-01-30T10:47:39;17.77;;;9.40;;
36797;SDS011;22748;8.426;99.512;2024-01-30T10:52:39;13.80;;;8.80;;
36797;SDS011;22748;8.426;99.512;2024-01-30T10:55:11;14.82;;;7.72;;
36797;SDS011;22748;8.426;99.512;2024-01-30T10:57:42;16.85;;;8.18;;
36797;SDS011;22748;8.426;99.512;2024-01-30T11:00:12;12.55;;;7.88;;
36797;SDS011;22748;8.426;99.512;2024-01-30T11:02:43;17.30;;;8.90;;
36797;SDS011;22748;8.426;99.512;2024-01-30T11:05:14;14.65;;;8.65;;
36797;SDS011;22748;8.426;99.512;2024-01-30T11:07:51;13.88;;;8.90;;
36797;SDS011;22748;8.426;99.512;2024-01-30T11:10:27;14.97;;;8.43;;
36797;SDS011;22748;8.426;99.512;2024-01-30T11:12:57;15.45;;;8.73;;
36797;SDS011;22748;8.426;99.512;2024-01-30T11:15:27;13.30;;;8.82;;
36797;SDS011;22748;8.426;99.512;2024-01-30T11:17:57;16.47;;;8.77;;
36797;SDS011;22748;8.426;99.512;2024-01-30T11:20:29;14.20;;;9.45;;
36797;SDS011;22748;8.426;99.512;2024-01-30T11:23:01;18.52;;;13.48;;
36797;SDS011;22748;8.426;99.512;2024-01-30T11:25:35;20.23;;;12.60;;
36797;SDS011;22748;8.426;99.512;2024-01-30T11:28:05;18.42;;;12.07;;
36797;SDS011;22748;8.426;99.512;2024-01-30T11:30:41;17.20;;;10.88;;
36797;SDS011;22748;8.426;99.512;2024-01-30T11:33:11;16.20;;;11.13;;
36797;SDS011;22748;8.426;99.512;2024-01-30T11:35:41;19.77;;;11.77;;
36797;SDS011;22748;8.426;99.512;2024-01-30T11:40:44;16.52;;;10.77;;
36797;SDS011;22748;8.426;99.512;2024-01-30T11:43:15;19.02;;;10.30;;
36797;SDS011;22748;8.426;99.512;2024-01-30T11:45:46;16.08;;;9.15;;
36797;SDS011;22748;8.426;99.512;2024-01-30T11:48:16;23.23;;;10.20;;
36797;SDS011;22748;8.426;99.512;2024-01-30T11:50:46;24.27;;;14.82;;
36797;SDS011;22748;8.426;99.512;2024-01-30T11:53:17;42.35;;;21.55;;
36797;SDS011;22748;8.426;99.512;2024-01-30T11:55:57;24.77;;;15.18;;
36797;SDS011;22748;8.426;99.512;2024-01-30T11:58:27;29.05;;;17.98;;
36797;SDS011;22748;8.426;99.512;2024-01-30T12:00:56;24.75;;;13.82;;
36797;SDS011;22748;8.426;99.512;2024-01-30T12:03:26;29.58;;;15.15;;
36797;SDS011;22748;8.426;99.512;2024-01-30T12:05:56;21.58;;;13.30;;
36797;SDS011;22748;8.426;99.512;2024-01-30T12:08:26;22.90;;;12.23;;
36797;SDS011;22748;8.426;99.512;2024-01-30T12:10:58;20.25;;;12.05;;
36797;SDS011;22748;8.426;99.512;2024-01-30T12:13:31;14.00;;;10.57;;
36797;SDS011;22748;8.426;99.512;2024-01-30T12:16:01;17.90;;;11.38;;
36797;SDS011;22748;8.426;99.512;2024-01-30T12:18:34;21.20;;;11.18;;
36797;SDS011;22748;8.426;99.512;2024-01-30T12:21:04;20.58;;;12.73;;
36797;SDS011;22748;8.426;99.512;2024-01-30T12:23:35;19.48;;;12.68;;
36797;SDS011;22748;8.426;99.512;2024-01-30T12:26:10;16.88;;;13.13;;
36797;SDS011;22748;8.426;99.512;2024-01-30T12:28:47;30.52;;;15.45;;
36797;SDS011;22748;8.426;99.512;2024-01-30T12:31:17;28.13;;;16.58;;
36797;SDS011;22748;8.426;99.512;2024-01-30T12:33:53;68.03;;;42.45;;
36797;SDS011;22748;8.426;99.512;2024-01-30T12:36:23;85.88;;;48.88;;
36797;SDS011;22748;8.426;99.512;2024-01-30T12:38:52;87.93;;;54.65;;
36797;SDS011;22748;8.426;99.512;2024-01-30T12:41:28;93.05;;;58.65;;
36797;SDS011;22748;8.426;99.512;2024-01-30T12:44:01;89.75;;;55.10;;
36797;SDS011;22748;8.426;99.512;2024-01-30T12:46:31;103.13;;;63.20;;
36797;SDS011;22748;8.426;99.512;2024-01-30T12:49:03;127.10;;;75.80;;
36797;SDS011;22748;8.426;99.512;2024-01-30T12:51:34;110.22;;;64.50;;
36797;SDS011;22748;8.426;99.512;2024-01-30T12:54:07;100.93;;;57.75;;
36797;SDS011;22748;8.426;99.512;2024-01-30T12:56:39;91.13;;;52.67;;
36797;SDS011;22748;8.426;99.512;2024-01-30T12:59:09;76.88;;;45.50;;
36797;SDS011;22748;8.426;99.512;2024-01-30T13:01:39;65.40;;;38.72;;
36797;SDS011;22748;8.426;99.512;2024-01-30T13:04:08;49.30;;;30.25;;
36797;SDS011;22748;8.426;99.512;2024-01-30T13:06:38;42.30;;;28.02;;
36797;SDS011;22748;8.426;99.512;2024-01-30T13:09:10;39.00;;;26.13;;
36797;SDS011;22748;8.426;99.512;2024-01-30T13:11:48;35.05;;;24.35;;
36797;SDS011;22748;8.426;99.512;2024-01-30T13:14:19;31.13;;;23.63;;
36797;SDS011;22748;8.426;99.512;2024-01-30T13:16:49;30.92;;;22.95;;
36797;SDS011;22748;8.426;99.512;2024-01-30T13:19:18;34.88;;;21.45;;
36797;SDS011;22748;8.426;99.512;2024-01-30T13:21:48;32.77;;;21.73;;
36797;SDS011;22748;8.426;99.512;2024-01-30T13:24:18;36.00;;;23.48;;
36797;SDS011;22748;8.426;99.512;2024-01-30T13:26:50;45.15;;;26.67;;
36797;SDS011;22748;8.426;99.512;2024-01-30T13:29:20;45.85;;;28.63;;
36797;SDS011;22748;8.426;99.512;2024-01-30T13:31:49;46.40;;;27.63;;
36797;SDS011;22748;8.426;99.512;2024-01-30T13:34:19;45.60;;;28.98;;
36797;SDS011;22748;8.426;99.512;2024-01-30T13:36:49;50.25;;;30.25;;
36797;SDS011;22748;8.426;99.512;2024-01-30T13:39:20;52.08;;;31.80;;
36797;SDS011;22748;8.426;99.512;2024-01-30T13:41:55;47.33;;;30.30;;
36797;SDS011;22748;8.426;99.512;2024-01-30T13:44:26;55.08;;;34.03;;
36797;SDS011;22748;8.426;99.512;2024-01-30T13:46:55;56.30;;;36.92;;
36797;SDS011;22748;8.426;99.512;2024-01-30T13:49:25;45.45;;;29.27;;
36797;SDS011;22748;8.426;99.512;2024-01-30T13:51:55;40.55;;;25.25;;
36797;SDS011;22748;8.426;99.512;2024-01-30T13:54:25;35.83;;;22.52;;
36797;SDS011;22748;8.426;99.512;2024-01-30T13:57:00;36.92;;;24.75;;
36797;SDS011;22748;8.426;99.512;2024-01-30T13:59:30;49.90;;;33.40;;
36797;SDS011;22748;8.426;99.512;2024-01-30T14:01:59;40.58;;;26.55;;
36797;SDS011;22748;8.426;99.512;2024-01-30T14:04:34;33.10;;;21.70;;
36797;SDS011;22748;8.426;99.512;2024-01-30T14:07:03;33.95;;;23.92;;
36797;SDS011;22748;8.426;99.512;2024-01-30T14:09:33;33.22;;;20.88;;
36797;SDS011;22748;8.426;99.512;2024-01-30T14:12:09;29.33;;;19.20;;
36797;SDS011;22748;8.426;99.512;2024-01-30T14:14:39;25.27;;;17.63;;
36797;SDS011;22748;8.426;99.512;2024-01-30T14:17:09;22.95;;;16.02;;
36797;SDS011;22748;8.426;99.512;2024-01-30T14:19:39;23.23;;;16.35;;
36797;SDS011;22748;8.426;99.512;2024-01-30T14:22:08;26.08;;;16.63;;
36797;SDS011;22748;8.426;99.512;2024-01-30T14:24:37;22.40;;;15.48;;
36797;SDS011;22748;8.426;99.512;2024-01-30T14:27:12;25.02;;;16.10;;
36797;SDS011;22748;8.426;99.512;2024-01-30T14:29:41;22.00;;;16.40;;
36797;SDS011;22748;8.426;99.512;2024-01-30T14:32:11;25.55;;;15.85;;
36797;SDS011;22748;8.426;99.512;2024-01-30T14:34:40;34.80;;;22.67;;
36797;SDS011;22748;8.426;99.512;2024-01-30T14:37:09;44.83;;;26.52;;
36797;SDS011;22748;8.426;99.512;2024-01-30T14:39:39;45.35;;;26.65;;
36797;SDS011;22748;8.426;99.512;2024-01-30T14:42:14;43.58;;;26.15;;
36797;SDS011;22748;8.426;99.512;2024-01-30T14:44:47;37.95;;;25.30;;
36797;SDS011;22748;8.426;99.512;2024-01-30T14:47:17;35.15;;;23.25;;
36797;SDS011;22748;8.426;99.512;2024-01-30T14:49:46;33.72;;;22.40;;
36797;SDS011;22748;8.426;99.512;2024-01-30T14:52:17;37.00;;;24.97;;
36797;SDS011;22748;8.426;99.512;2024-01-30T14:54:46;42.63;;;25.23;;
36797;SDS011;22748;8.426;99.512;2024-01-30T14:57:18;42.72;;;25.83;;
36797;SDS011;22748;8.426;99.512;2024-01-30T14:59:48;38.78;;;25.40;;
36797;SDS011;22748;8.426;99.512;2024-01-30T15:02:17;47.00;;;27.73;;
36797;SDS011;22748;8.426;99.512;2024-01-30T15:04:47;64.85;;;36.42;;
36797;SDS011;22748;8.426;99.512;2024-01-30T15:07:16;63.33;;;34.58;;